Time;durP1;ratioP1;P1;durP2;ratioP2;P2;SDS_P1;SDS_P2;PMS_P1;PMS_P2;Temp;Humidity;BMP_temperature;BMP_pressure;BME280_temperature;BME280_humidity;BME280_pressure;Samples;Min_cycle;Max_cycle;Signal;HPM_P1;HPM_P2
2021/03/11 00:00:42;;;;;;;2.83;1.05;;;;;;;;;;5035379;28;20053;-53
2021/03/11 00:03:08;;;;;;;4.35;1.30;;;;;;;;;;5032784;28;20057;-55
2021/03/11 00:05:35;;;;;;;3.15;1.20;;;;;;;;;;5033541;28;20044;-53
2021/03/11 00:08:01;;;;;;;5.20;0.90;;;;;;;;;;5033146;28;20070;-56
2021/03/11 00:10:27;;;;;;;2.75;0.75;;;;;;;;;;5032115;28;20037;-52
2021/03/11 00:12:53;;;;;;;2.40;0.80;;;;;;;;;;5035692;28;20029;-53
2021/03/11 00:15:20;;;;;;;9.77;1.27;;;;;;;;;;5033353;28;20097;-55
2021/03/11 00:17:46;;;;;;;4.60;1.10;;;;;;;;;;5035238;28;20067;-56
2021/03/11 00:20:14;;;;;;;18.80;1.67;;;;;;;;;;5032619;28;20102;-53
2021/03/11 00:22:40;;;;;;;3.95;1.25;;;;;;;;;;5034029;28;20041;-53
2021/03/11 00:25:13;;;;;;;2.97;1.10;;;;;;;;;;5034407;28;20051;-54
2021/03/11 00:27:39;;;;;;;4.05;1.20;;;;;;;;;;5028434;28;20048;-55
2021/03/11 00:30:06;;;;;;;6.32;2.22;;;;;;;;;;5034645;28;20037;-53
2021/03/11 00:32:32;;;;;;;9.13;1.92;;;;;;;;;;5034390;28;20127;-55
2021/03/11 00:34:58;;;;;;;4.78;1.40;;;;;;;;;;5028012;28;20156;-54
2021/03/11 00:37:24;;;;;;;4.63;1.55;;;;;;;;;;5034540;28;20455;-55
2021/03/11 00:39:50;;;;;;;3.13;1.40;;;;;;;;;;5034630;28;20063;-54
2021/03/11 00:42:16;;;;;;;5.65;1.52;;;;;;;;;;5034775;28;20037;-57
2021/03/11 00:44:41;;;;;;;4.03;1.30;;;;;;;;;;5034551;28;20045;-57
2021/03/11 00:47:07;;;;;;;4.05;1.20;;;;;;;;;;5034821;28;20397;-53
2021/03/11 00:49:34;;;;;;;6.22;1.23;;;;;;;;;;5033337;28;20487;-55
2021/03/11 00:52:00;;;;;;;7.93;2.65;;;;;;;;;;5032219;28;20044;-55
2021/03/11 00:54:27;;;;;;;3.80;1.17;;;;;;;;;;5030914;28;20152;-55
2021/03/11 00:56:53;;;;;;;4.53;1.10;;;;;;;;;;5034598;28;20040;-55
2021/03/11 00:59:18;;;;;;;5.78;1.40;;;;;;;;;;5033489;28;20037;-54
2021/03/11 01:01:44;;;;;;;6.68;1.75;;;;;;;;;;5029992;28;20056;-57
2021/03/11 01:04:12;;;;;;;14.40;5.53;;;;;;;;;;5035886;28;20112;-53
2021/03/11 01:06:38;;;;;;;3.67;1.30;;;;;;;;;;5034572;28;20053;-55
2021/03/11 01:09:03;;;;;;;9.93;1.35;;;;;;;;;;5037931;28;20040;-54
2021/03/11 01:11:29;;;;;;;3.03;1.10;;;;;;;;;;5031370;28;20390;-54
2021/03/11 01:13:55;;;;;;;5.30;1.27;;;;;;;;;;5033281;28;20047;-52
2021/03/11 01:16:21;;;;;;;8.10;1.42;;;;;;;;;;5033970;28;20040;-54
2021/03/11 01:18:47;;;;;;;6.38;1.40;;;;;;;;;;5033471;28;20094;-52
2021/03/11 01:21:13;;;;;;;3.95;1.25;;;;;;;;;;5033276;28;22090;-56
2021/03/11 01:23:39;;;;;;;6.05;1.65;;;;;;;;;;5031591;28;20396;-55
2021/03/11 01:26:05;;;;;;;6.28;1.40;;;;;;;;;;5024108;28;20063;-56
2021/03/11 01:28:31;;;;;;;5.32;1.60;;;;;;;;;;5032425;28;20036;-52
2021/03/11 01:30:57;;;;;;;6.38;1.98;;;;;;;;;;5031844;28;20090;-55
2021/03/11 01:33:22;;;;;;;6.45;2.03;;;;;;;;;;5032545;28;20091;-57
2021/03/11 01:35:48;;;;;;;4.57;2.22;;;;;;;;;;5031198;28;20037;-52
2021/03/11 01:38:14;;;;;;;5.10;1.30;;;;;;;;;;5033342;28;20041;-53
2021/03/11 01:40:40;;;;;;;4.70;1.13;;;;;;;;;;5032098;28;20056;-52
2021/03/11 01:43:06;;;;;;;7.85;1.25;;;;;;;;;;5032033;28;20118;-55
2021/03/11 01:45:32;;;;;;;4.97;1.27;;;;;;;;;;5031209;28;20099;-55
2021/03/11 01:47:58;;;;;;;3.70;1.30;;;;;;;;;;5031748;28;20088;-54
2021/03/11 01:50:24;;;;;;;7.10;1.40;;;;;;;;;;5032222;28;20055;-54
2021/03/11 01:52:50;;;;;;;5.00;1.33;;;;;;;;;;5032645;28;20182;-52
2021/03/11 01:55:17;;;;;;;4.28;1.30;;;;;;;;;;5033004;28;20064;-52
2021/03/11 01:57:43;;;;;;;3.08;1.17;;;;;;;;;;5030887;28;20052;-53
2021/03/11 02:00:12;;;;;;;4.90;1.25;;;;;;;;;;5032788;28;20048;-52
2021/03/11 02:02:47;;;;;;;4.53;1.42;;;;;;;;;;5031079;28;20322;-54
2021/03/11 02:05:15;;;;;;;5.55;1.10;;;;;;;;;;5032848;28;20130;-54
2021/03/11 02:07:41;;;;;;;4.57;1.40;;;;;;;;;;5033117;28;20044;-54
2021/03/11 02:10:08;;;;;;;4.82;1.40;;;;;;;;;;5027852;28;21029;-53
2021/03/11 02:12:52;;;;;;;3.03;1.00;;;;;;;;;;5030968;28;20047;-54
2021/03/11 02:15:41;;;;;;;5.45;1.40;;;;;;;;;;5034293;28;20078;-54
2021/03/11 02:18:14;;;;;;;4.57;1.20;;;;;;;;;;5004700;28;20049;-55
2021/03/11 02:20:47;;;;;;;4.95;1.58;;;;;;;;;;5033913;28;20045;-55
2021/03/11 02:23:22;;;;;;;6.25;1.83;;;;;;;;;;5035471;28;20536;-55
2021/03/11 02:26:06;;;;;;;4.60;1.40;;;;;;;;;;5036746;28;20124;-54
2021/03/11 02:28:51;;;;;;;5.38;1.63;;;;;;;;;;5034298;28;20037;-52
2021/03/11 02:31:17;;;;;;;5.10;1.40;;;;;;;;;;5035796;28;20740;-53
2021/03/11 02:33:44;;;;;;;7.55;1.52;;;;;;;;;;5035490;28;20037;-52
2021/03/11 02:36:12;;;;;;;6.55;1.45;;;;;;;;;;5034677;28;20083;-54
2021/03/11 02:38:38;;;;;;;7.30;1.77;;;;;;;;;;5044956;28;20045;-55
2021/03/11 02:41:04;;;;;;;4.40;1.77;;;;;;;;;;5036074;28;20591;-52
2021/03/11 02:43:30;;;;;;;4.05;1.60;;;;;;;;;;5036603;28;20248;-55
2021/03/11 02:45:56;;;;;;;3.70;1.40;;;;;;;;;;5037867;28;20049;-52
2021/03/11 02:48:22;;;;;;;4.03;1.70;;;;;;;;;;5033403;28;20033;-54
2021/03/11 02:50:49;;;;;;;3.08;1.25;;;;;;;;;;5035470;28;20134;-51
2021/03/11 02:53:15;;;;;;;5.82;1.50;;;;;;;;;;5036849;28;20036;-54
2021/03/11 02:55:42;;;;;;;6.88;1.90;;;;;;;;;;5035777;28;20157;-52
2021/03/11 02:58:11;;;;;;;4.80;1.55;;;;;;;;;;5033912;28;20359;-54
2021/03/11 03:00:38;;;;;;;8.88;1.70;;;;;;;;;;5036659;28;20072;-54
2021/03/11 03:03:06;;;;;;;3.10;1.30;;;;;;;;;;5037252;28;20083;-53
2021/03/11 03:05:33;;;;;;;4.22;1.40;;;;;;;;;;5035824;28;20097;-55
2021/03/11 03:07:59;;;;;;;6.88;1.70;;;;;;;;;;5034651;28;20069;-56
2021/03/11 03:10:26;;;;;;;4.57;1.55;;;;;;;;;;5032968;28;20037;-52
2021/03/11 03:12:54;;;;;;;4.80;1.90;;;;;;;;;;5032408;28;22064;-53
2021/03/11 03:15:21;;;;;;;5.60;1.83;;;;;;;;;;5033202;28;20036;-55
2021/03/11 03:17:48;;;;;;;5.60;1.77;;;;;;;;;;5036530;28;20136;-56
2021/03/11 03:20:15;;;;;;;4.65;1.85;;;;;;;;;;5036724;28;20053;-52
2021/03/11 03:22:41;;;;;;;4.53;1.80;;;;;;;;;;5035602;28;20401;-55
2021/03/11 03:25:11;;;;;;;4.30;1.80;;;;;;;;;;5037438;28;20033;-53
2021/03/11 03:27:37;;;;;;;7.82;2.45;;;;;;;;;;5033805;28;20631;-52
2021/03/11 03:30:07;;;;;;;4.78;1.70;;;;;;;;;;5034851;28;20098;-55
2021/03/11 03:32:33;;;;;;;3.40;1.55;;;;;;;;;;5034045;28;20037;-54
2021/03/11 03:34:59;;;;;;;5.68;1.75;;;;;;;;;;5032228;28;20098;-55
2021/03/11 03:37:25;;;;;;;4.35;1.55;;;;;;;;;;5035429;28;20037;-54
2021/03/11 03:39:51;;;;;;;3.88;1.52;;;;;;;;;;5033955;28;20136;-55
2021/03/11 03:42:17;;;;;;;4.63;1.63;;;;;;;;;;5035347;28;20042;-53
2021/03/11 03:44:43;;;;;;;4.03;1.60;;;;;;;;;;5035021;28;20513;-53
2021/03/11 03:47:10;;;;;;;3.95;1.77;;;;;;;;;;5032633;28;20726;-54
2021/03/11 03:49:38;;;;;;;4.03;1.70;;;;;;;;;;5034367;28;20103;-52
2021/03/11 03:52:06;;;;;;;8.48;2.97;;;;;;;;;;5032985;28;20048;-55
2021/03/11 03:54:35;;;;;;;4.50;1.92;;;;;;;;;;5032673;28;20041;-56
2021/03/11 03:57:02;;;;;;;4.40;1.63;;;;;;;;;;5035751;28;21052;-55
2021/03/11 03:59:34;;;;;;;5.93;1.90;;;;;;;;;;5033790;28;20047;-52
2021/03/11 04:02:03;;;;;;;4.47;2.03;;;;;;;;;;5036065;28;20040;-54
2021/03/11 04:04:30;;;;;;;5.13;2.15;;;;;;;;;;5035032;28;20037;-55
2021/03/11 04:06:56;;;;;;;7.18;2.50;;;;;;;;;;5035853;28;20045;-56
2021/03/11 04:09:23;;;;;;;5.68;2.85;;;;;;;;;;5032124;28;20778;-56
2021/03/11 04:11:49;;;;;;;5.80;2.38;;;;;;;;;;5034292;28;20123;-52
2021/03/11 04:14:16;;;;;;;4.75;2.08;;;;;;;;;;5035042;28;20044;-54
2021/03/11 04:16:42;;;;;;;4.10;2.15;;;;;;;;;;5032780;28;20044;-54
2021/03/11 04:19:09;;;;;;;7.38;2.85;;;;;;;;;;5029892;28;20037;-55
2021/03/11 04:21:35;;;;;;;6.50;3.15;;;;;;;;;;5032278;28;20044;-55
2021/03/11 04:24:02;;;;;;;6.00;3.00;;;;;;;;;;5034512;28;20044;-55
2021/03/11 04:26:29;;;;;;;9.82;3.65;;;;;;;;;;5033622;28;20102;-55
2021/03/11 04:28:55;;;;;;;8.15;3.55;;;;;;;;;;5032343;28;20033;-54
2021/03/11 04:31:21;;;;;;;11.70;3.38;;;;;;;;;;5030792;28;20056;-56
2021/03/11 04:33:47;;;;;;;5.68;2.78;;;;;;;;;;5034384;28;20061;-55
2021/03/11 04:36:13;;;;;;;6.55;3.08;;;;;;;;;;5030923;28;20120;-55
2021/03/11 04:38:40;;;;;;;7.75;3.10;;;;;;;;;;5032167;28;20045;-54
2021/03/11 04:41:06;;;;;;;11.35;3.03;;;;;;;;;;5024276;28;20056;-56
2021/03/11 04:43:33;;;;;;;6.40;3.63;;;;;;;;;;5032883;28;20037;-55
2021/03/11 04:45:59;;;;;;;7.18;3.10;;;;;;;;;;5029119;28;20605;-56
2021/03/11 04:48:25;;;;;;;6.43;3.28;;;;;;;;;;5033331;28;20052;-54
2021/03/11 04:50:51;;;;;;;8.93;3.33;;;;;;;;;;5033452;28;20060;-55
2021/03/11 04:53:21;;;;;;;7.22;3.63;;;;;;;;;;5033997;28;20695;-57
2021/03/11 04:55:47;;;;;;;8.30;3.28;;;;;;;;;;5032483;28;20044;-56
2021/03/11 04:58:13;;;;;;;5.63;2.92;;;;;;;;;;5031859;28;21060;-56
2021/03/11 05:00:41;;;;;;;6.63;3.50;;;;;;;;;;5030972;28;20596;-54
2021/03/11 05:03:08;;;;;;;9.80;3.03;;;;;;;;;;5025922;28;20045;-53
2021/03/11 05:05:38;;;;;;;6.43;2.90;;;;;;;;;;5032942;28;20087;-54
2021/03/11 05:08:07;;;;;;;11.00;3.15;;;;;;;;;;5029823;28;20128;-56
2021/03/11 05:10:33;;;;;;;7.53;2.78;;;;;;;;;;5030321;28;20063;-55
2021/03/11 05:13:00;;;;;;;6.45;3.08;;;;;;;;;;5026726;28;20037;-55
2021/03/11 05:15:26;;;;;;;6.70;3.08;;;;;;;;;;5031645;28;20090;-55
2021/03/11 05:17:52;;;;;;;7.80;3.42;;;;;;;;;;5031830;28;20037;-57
2021/03/11 05:20:18;;;;;;;5.65;2.88;;;;;;;;;;5022560;28;20052;-56
2021/03/11 05:22:44;;;;;;;6.63;3.38;;;;;;;;;;5032187;28;20130;-56
2021/03/11 05:25:11;;;;;;;5.70;2.63;;;;;;;;;;5030505;28;20120;-56
2021/03/11 05:27:38;;;;;;;7.63;3.60;;;;;;;;;;5029471;28;20042;-52
2021/03/11 05:30:04;;;;;;;6.75;2.95;;;;;;;;;;5029301;28;20037;-56
2021/03/11 05:32:30;;;;;;;9.35;4.05;;;;;;;;;;5029927;28;20047;-56
2021/03/11 05:34:56;;;;;;;8.70;3.85;;;;;;;;;;5027315;28;20041;-54
2021/03/11 05:37:22;;;;;;;7.70;3.70;;;;;;;;;;5040677;28;20648;-57
2021/03/11 05:39:48;;;;;;;7.30;3.90;;;;;;;;;;5031982;28;20608;-56
2021/03/11 05:42:17;;;;;;;6.90;4.05;;;;;;;;;;5032345;28;20723;-56
2021/03/11 05:44:43;;;;;;;12.02;4.05;;;;;;;;;;5031109;28;20052;-54
2021/03/11 05:47:11;;;;;;;9.05;4.40;;;;;;;;;;5030575;28;20863;-55
2021/03/11 05:49:38;;;;;;;20.02;7.50;;;;;;;;;;5030433;28;21807;-54
2021/03/11 05:52:05;;;;;;;8.30;4.28;;;;;;;;;;5032950;28;20130;-55
2021/03/11 05:54:32;;;;;;;8.57;4.60;;;;;;;;;;5031025;28;20178;-56
2021/03/11 05:57:00;;;;;;;12.43;6.65;;;;;;;;;;5029771;28;20122;-54
2021/03/11 05:59:26;;;;;;;12.40;6.20;;;;;;;;;;5028101;28;20501;-56
2021/03/11 06:01:53;;;;;;;13.23;5.97;;;;;;;;;;5031847;28;20068;-56
2021/03/11 06:04:19;;;;;;;9.25;4.97;;;;;;;;;;5031353;28;20104;-56
2021/03/11 06:06:45;;;;;;;12.45;5.60;;;;;;;;;;5030469;28;20036;-56
2021/03/11 06:09:11;;;;;;;16.60;5.90;;;;;;;;;;5029608;28;20123;-53
2021/03/11 06:11:38;;;;;;;10.00;5.88;;;;;;;;;;5029978;28;20037;-55
2021/03/11 06:14:07;;;;;;;14.63;7.38;;;;;;;;;;5028590;28;20056;-56
2021/03/11 06:16:33;;;;;;;14.90;7.78;;;;;;;;;;5029157;28;20870;-55
2021/03/11 06:18:59;;;;;;;22.00;6.97;;;;;;;;;;5028548;28;20697;-55
2021/03/11 06:21:25;;;;;;;12.55;6.43;;;;;;;;;;5032261;28;20536;-55
2021/03/11 06:23:51;;;;;;;15.23;5.70;;;;;;;;;;5028188;28;20040;-56
2021/03/11 06:26:17;;;;;;;12.50;5.43;;;;;;;;;;5030820;28;20363;-55
2021/03/11 06:28:46;;;;;;;19.30;7.47;;;;;;;;;;5036043;28;20041;-56
2021/03/11 06:31:27;;;;;;;13.10;5.78;;;;;;;;;;5031518;28;20064;-55
2021/03/11 06:33:54;;;;;;;18.70;5.40;;;;;;;;;;5030376;28;20053;-57
2021/03/11 06:36:21;;;;;;;12.27;5.45;;;;;;;;;;5031255;28;20120;-56
2021/03/11 06:38:47;;;;;;;11.02;5.15;;;;;;;;;;5031480;28;20395;-56
2021/03/11 06:41:14;;;;;;;12.77;6.25;;;;;;;;;;5028250;28;20455;-55
2021/03/11 06:43:59;;;;;;;14.80;6.30;;;;;;;;;;5019176;28;20091;-57
2021/03/11 06:46:26;;;;;;;11.73;4.90;;;;;;;;;;5030178;28;20037;-57
2021/03/11 06:49:08;;;;;;;16.80;5.00;;;;;;;;;;5031399;28;20115;-55
2021/03/11 06:51:35;;;;;;;10.60;4.65;;;;;;;;;;5031199;28;20620;-55
2021/03/11 06:54:01;;;;;;;10.13;5.25;;;;;;;;;;5033547;28;20067;-54
2021/03/11 06:56:27;;;;;;;12.02;4.72;;;;;;;;;;5032021;28;20629;-55
2021/03/11 06:59:01;;;;;;;12.98;4.60;;;;;;;;;;5033355;28;20069;-58
2021/03/11 07:01:28;;;;;;;9.98;4.57;;;;;;;;;;5031016;28;20078;-57
2021/03/11 07:03:54;;;;;;;9.73;5.57;;;;;;;;;;5031247;28;20035;-55
2021/03/11 07:06:38;;;;;;;11.80;5.82;;;;;;;;;;5031982;28;20874;-56
2021/03/11 07:09:05;;;;;;;11.35;5.63;;;;;;;;;;5034941;28;20052;-55
2021/03/11 07:11:31;;;;;;;9.48;5.30;;;;;;;;;;5034559;28;20041;-56
2021/03/11 07:13:58;;;;;;;10.77;4.53;;;;;;;;;;5025851;28;20083;-57
2021/03/11 07:16:25;;;;;;;9.20;4.80;;;;;;;;;;5034798;28;20044;-54
2021/03/11 07:19:29;;;;;;;11.63;4.82;;;;;;;;;;5036546;28;20056;-55
2021/03/11 07:21:55;;;;;;;11.90;4.50;;;;;;;;;;4971381;28;20549;-54
2021/03/11 07:24:53;;;;;;;10.13;4.45;;;;;;;;;;4990354;28;20181;-55
2021/03/11 07:27:19;;;;;;;12.63;3.92;;;;;;;;;;5008197;28;20053;-55
2021/03/11 07:30:00;;;;;;;9.90;4.63;;;;;;;;;;5035500;28;20424;-53
2021/03/11 07:32:26;;;;;;;10.13;3.88;;;;;;;;;;5035321;28;20121;-56
2021/03/11 07:34:52;;;;;;;11.23;4.35;;;;;;;;;;5036798;28;20437;-54
2021/03/11 07:37:18;;;;;;;10.63;3.90;;;;;;;;;;5029058;28;20590;-55
2021/03/11 07:39:44;;;;;;;21.13;4.03;;;;;;;;;;5035753;28;20112;-54
2021/03/11 07:42:10;;;;;;;15.07;4.20;;;;;;;;;;5034596;28;20037;-56
2021/03/11 07:44:39;;;;;;;12.75;3.92;;;;;;;;;;5033202;28;20852;-53
2021/03/11 07:47:05;;;;;;;8.90;4.00;;;;;;;;;;5035352;28;20071;-56
2021/03/11 07:49:32;;;;;;;8.52;4.03;;;;;;;;;;5035853;28;20488;-56
2021/03/11 07:51:59;;;;;;;10.70;3.88;;;;;;;;;;5036150;28;20052;-57
2021/03/11 07:54:25;;;;;;;9.85;3.85;;;;;;;;;;5034758;28;20144;-55
2021/03/11 07:56:51;;;;;;;16.08;4.28;;;;;;;;;;5032051;28;20040;-52
2021/03/11 07:59:18;;;;;;;9.70;4.15;;;;;;;;;;5045378;28;20056;-55
2021/03/11 08:01:51;;;;;;;8.15;3.80;;;;;;;;;;5039080;28;20045;-56
2021/03/11 08:04:19;;;;;;;12.48;5.10;;;;;;;;;;5039009;28;21070;-55
2021/03/11 08:06:45;;;;;;;9.30;4.47;;;;;;;;;;5040387;28;20067;-53
2021/03/11 08:09:11;;;;;;;15.57;4.60;;;;;;;;;;5039461;28;20059;-55
2021/03/11 08:11:38;;;;;;;9.82;4.00;;;;;;;;;;5038603;28;20442;-55
2021/03/11 08:14:16;;;;;;;11.50;4.45;;;;;;;;;;5039117;28;20033;-55
2021/03/11 08:16:42;;;;;;;11.77;4.78;;;;;;;;;;5039738;28;20037;-54
2021/03/11 08:19:08;;;;;;;9.60;4.53;;;;;;;;;;5038833;28;20052;-56
2021/03/11 08:21:34;;;;;;;20.15;5.15;;;;;;;;;;5038523;28;20168;-54
2021/03/11 08:24:00;;;;;;;8.63;4.93;;;;;;;;;;5037417;28;20045;-55
2021/03/11 08:26:38;;;;;;;10.00;4.47;;;;;;;;;;5037794;28;20037;-57
2021/03/11 08:29:19;;;;;;;8.50;4.80;;;;;;;;;;5037563;28;20033;-54
2021/03/11 08:31:45;;;;;;;11.68;4.90;;;;;;;;;;5052861;28;20052;-55
2021/03/11 08:34:30;;;;;;;12.88;5.40;;;;;;;;;;5037070;28;20041;-56
2021/03/11 08:37:13;;;;;;;12.65;5.20;;;;;;;;;;5036025;28;20036;-55
2021/03/11 08:39:39;;;;;;;14.35;4.78;;;;;;;;;;5037989;28;21837;-55
2021/03/11 08:42:26;;;;;;;9.50;4.90;;;;;;;;;;5036217;28;20037;-56
2021/03/11 08:44:52;;;;;;;11.18;5.82;;;;;;;;;;5033025;28;20044;-56
2021/03/11 08:47:18;;;;;;;12.55;5.70;;;;;;;;;;5035642;28;20036;-56
2021/03/11 08:49:44;;;;;;;11.95;4.93;;;;;;;;;;5038355;28;20060;-53
2021/03/11 08:52:33;;;;;;;12.30;4.78;;;;;;;;;;5035714;28;20082;-55
2021/03/11 08:55:17;;;;;;;9.95;4.70;;;;;;;;;;5030135;28;20108;-55
2021/03/11 08:57:43;;;;;;;14.60;4.53;;;;;;;;;;5034443;28;20124;-55
2021/03/11 09:00:09;;;;;;;9.15;4.82;;;;;;;;;;5035817;28;20489;-54
2021/03/11 09:02:35;;;;;;;12.45;5.15;;;;;;;;;;5035762;28;20052;-54
2021/03/11 09:05:01;;;;;;;11.50;4.88;;;;;;;;;;5034207;28;20033;-56
2021/03/11 09:07:28;;;;;;;8.60;3.88;;;;;;;;;;5035342;28;20033;-55
2021/03/11 09:09:54;;;;;;;15.15;5.78;;;;;;;;;;5036659;28;20037;-53
2021/03/11 09:12:41;;;;;;;9.80;4.20;;;;;;;;;;5034989;28;20765;-56
2021/03/11 09:15:08;;;;;;;8.95;4.57;;;;;;;;;;5034974;28;20037;-56
2021/03/11 09:17:34;;;;;;;9.90;4.32;;;;;;;;;;5031883;28;20045;-53
2021/03/11 09:20:01;;;;;;;11.45;4.63;;;;;;;;;;5035054;28;20134;-55
2021/03/11 09:22:29;;;;;;;12.82;5.35;;;;;;;;;;5035900;28;20095;-56
2021/03/11 09:25:04;;;;;;;10.13;4.43;;;;;;;;;;5034626;28;20057;-55
2021/03/11 09:27:31;;;;;;;9.45;4.32;;;;;;;;;;5031728;28;20049;-56
2021/03/11 09:29:58;;;;;;;10.00;4.97;;;;;;;;;;5033652;28;20482;-56
2021/03/11 09:32:27;;;;;;;20.92;5.60;;;;;;;;;;5032352;28;20090;-54
2021/03/11 09:35:07;;;;;;;8.93;4.80;;;;;;;;;;5036932;28;20033;-55
2021/03/11 09:38:02;;;;;;;14.52;4.90;;;;;;;;;;5033872;28;20037;-54
2021/03/11 09:40:38;;;;;;;11.73;4.00;;;;;;;;;;5022186;28;20152;-55
2021/03/11 09:43:09;;;;;;;16.45;4.57;;;;;;;;;;5034746;28;20043;-54
2021/03/11 09:45:36;;;;;;;12.27;5.00;;;;;;;;;;5032227;28;20044;-55
2021/03/11 09:48:05;;;;;;;11.68;5.03;;;;;;;;;;5033130;28;20041;-53
2021/03/11 09:50:31;;;;;;;12.70;4.88;;;;;;;;;;5026056;28;20529;-54
2021/03/11 09:52:58;;;;;;;10.05;4.63;;;;;;;;;;5033504;28;20108;-55
2021/03/11 09:55:24;;;;;;;15.25;5.30;;;;;;;;;;5032705;28;21552;-53
2021/03/11 09:57:50;;;;;;;14.52;4.53;;;;;;;;;;5033546;28;20048;-54
2021/03/11 10:00:17;;;;;;;16.08;5.03;;;;;;;;;;5032810;28;20068;-56
2021/03/11 10:02:50;;;;;;;16.13;4.45;;;;;;;;;;5032753;28;20053;-56
2021/03/11 10:05:16;;;;;;;10.77;4.50;;;;;;;;;;5032676;28;20064;-55
2021/03/11 10:07:42;;;;;;;8.43;4.35;;;;;;;;;;5031900;28;20120;-57
2021/03/11 10:10:14;;;;;;;10.93;4.63;;;;;;;;;;5032660;28;20033;-56
2021/03/11 10:12:45;;;;;;;11.80;4.63;;;;;;;;;;5031093;28;20115;-55
2021/03/11 10:15:12;;;;;;;10.95;4.38;;;;;;;;;;5032846;28;20049;-53
2021/03/11 10:17:38;;;;;;;7.78;3.85;;;;;;;;;;5031136;28;20038;-53
2021/03/11 10:20:22;;;;;;;14.23;4.53;;;;;;;;;;5034093;28;20148;-53
2021/03/11 10:22:49;;;;;;;14.57;4.38;;;;;;;;;;5041616;28;20738;-55
2021/03/11 10:25:15;;;;;;;11.55;4.03;;;;;;;;;;5033238;28;20474;-56
2021/03/11 10:27:48;;;;;;;8.73;4.65;;;;;;;;;;5033212;28;20060;-54
2021/03/11 10:30:19;;;;;;;9.67;4.97;;;;;;;;;;5034925;28;20068;-56
2021/03/11 10:32:51;;;;;;;8.40;4.28;;;;;;;;;;5029759;28;20041;-55
2021/03/11 10:35:31;;;;;;;9.13;4.57;;;;;;;;;;5032448;28;20041;-57
2021/03/11 10:38:15;;;;;;;13.13;4.57;;;;;;;;;;5038274;28;20040;-57
2021/03/11 10:40:41;;;;;;;10.45;4.30;;;;;;;;;;5035832;28;20053;-56
2021/03/11 10:43:18;;;;;;;7.40;3.78;;;;;;;;;;5031552;28;20044;-56
2021/03/11 10:45:44;;;;;;;10.40;4.55;;;;;;;;;;5038954;28;20045;-56
2021/03/11 10:48:10;;;;;;;8.55;3.97;;;;;;;;;;5040535;28;20025;-56
2021/03/11 10:50:39;;;;;;;10.15;4.43;;;;;;;;;;5039294;28;20076;-56
2021/03/11 10:53:05;;;;;;;14.88;4.40;;;;;;;;;;5039056;28;20041;-55
2021/03/11 10:55:34;;;;;;;10.23;4.22;;;;;;;;;;5039953;28;20444;-56
2021/03/11 10:58:00;;;;;;;16.52;5.20;;;;;;;;;;5038112;28;20436;-53
2021/03/11 11:00:29;;;;;;;10.48;4.45;;;;;;;;;;5038642;28;20037;-56
2021/03/11 11:02:56;;;;;;;14.70;5.60;;;;;;;;;;5038723;28;20132;-55
2021/03/11 11:05:22;;;;;;;8.75;4.60;;;;;;;;;;5038956;28;20052;-54
2021/03/11 11:07:48;;;;;;;10.43;4.40;;;;;;;;;;5035808;28;20055;-52
2021/03/11 11:10:16;;;;;;;9.80;3.90;;;;;;;;;;5037696;28;20068;-55
2021/03/11 11:12:42;;;;;;;14.07;4.30;;;;;;;;;;5036683;28;20051;-56
2021/03/11 11:15:08;;;;;;;13.93;4.82;;;;;;;;;;5035970;28;20041;-56
2021/03/11 11:17:34;;;;;;;13.43;4.63;;;;;;;;;;5034481;28;20167;-53
2021/03/11 11:20:00;;;;;;;12.05;3.67;;;;;;;;;;5036625;28;20033;-55
2021/03/11 11:22:26;;;;;;;9.82;3.72;;;;;;;;;;5034842;28;20071;-55
2021/03/11 11:24:51;;;;;;;9.63;3.80;;;;;;;;;;5036234;28;20076;-56
2021/03/11 11:27:17;;;;;;;11.07;4.43;;;;;;;;;;5034330;28;20033;-56
2021/03/11 11:29:43;;;;;;;8.57;4.13;;;;;;;;;;5037382;28;20501;-56
2021/03/11 11:32:09;;;;;;;10.52;4.72;;;;;;;;;;5038029;28;20128;-53
2021/03/11 11:34:35;;;;;;;10.20;4.15;;;;;;;;;;5036988;28;20043;-56
2021/03/11 11:37:01;;;;;;;8.55;4.38;;;;;;;;;;5037561;28;20103;-55
2021/03/11 11:39:27;;;;;;;9.52;4.47;;;;;;;;;;5035805;28;20658;-55
2021/03/11 11:41:53;;;;;;;6.88;3.20;;;;;;;;;;5036045;28;20052;-54
2021/03/11 11:44:19;;;;;;;10.65;4.55;;;;;;;;;;5034745;28;20037;-54
2021/03/11 11:46:45;;;;;;;6.90;3.58;;;;;;;;;;5034951;28;20575;-55
2021/03/11 11:49:11;;;;;;;10.00;3.30;;;;;;;;;;5035061;28;20037;-55
2021/03/11 11:51:37;;;;;;;9.88;3.83;;;;;;;;;;5035772;28;20134;-56
2021/03/11 11:54:04;;;;;;;13.43;3.85;;;;;;;;;;5045581;28;20128;-55
2021/03/11 11:56:30;;;;;;;8.18;4.03;;;;;;;;;;5034405;28;20049;-53
2021/03/11 11:58:56;;;;;;;9.77;4.95;;;;;;;;;;5036223;28;20025;-52
2021/03/11 12:01:22;;;;;;;8.60;4.32;;;;;;;;;;5034394;28;20041;-54
2021/03/11 12:03:47;;;;;;;11.38;4.00;;;;;;;;;;5036010;28;20056;-57
2021/03/11 12:06:13;;;;;;;9.45;3.95;;;;;;;;;;5034926;28;20041;-56
2021/03/11 12:08:40;;;;;;;9.38;3.97;;;;;;;;;;5034786;28;20513;-55
2021/03/11 12:11:06;;;;;;;7.68;4.05;;;;;;;;;;5033967;28;20049;-53
2021/03/11 12:13:32;;;;;;;7.65;3.63;;;;;;;;;;5035358;28;20033;-52
2021/03/11 12:15:59;;;;;;;11.60;4.22;;;;;;;;;;5034902;28;20033;-54
2021/03/11 12:18:25;;;;;;;9.50;3.75;;;;;;;;;;5033381;28;20518;-52
2021/03/11 12:20:50;;;;;;;8.88;3.40;;;;;;;;;;5036237;28;20057;-56
2021/03/11 12:23:17;;;;;;;11.20;3.78;;;;;;;;;;5034546;28;20061;-54
2021/03/11 12:25:43;;;;;;;11.45;4.18;;;;;;;;;;5033912;28;20091;-52
2021/03/11 12:28:09;;;;;;;15.27;3.92;;;;;;;;;;5034379;28;20128;-56
2021/03/11 12:30:35;;;;;;;8.73;3.40;;;;;;;;;;5033344;28;20402;-55
2021/03/11 12:33:00;;;;;;;12.75;3.78;;;;;;;;;;5036330;28;20047;-56
2021/03/11 12:35:26;;;;;;;7.57;3.70;;;;;;;;;;5034654;28;20048;-54
2021/03/11 12:37:52;;;;;;;9.32;3.53;;;;;;;;;;5034462;28;20056;-54
2021/03/11 12:40:19;;;;;;;11.70;3.75;;;;;;;;;;5034065;28;20152;-52
2021/03/11 12:42:48;;;;;;;10.38;3.67;;;;;;;;;;5034730;28;20041;-56
2021/03/11 12:45:18;;;;;;;9.50;3.55;;;;;;;;;;5033762;28;20069;-56
2021/03/11 12:47:44;;;;;;;7.93;3.55;;;;;;;;;;5034503;28;20037;-56
2021/03/11 12:50:11;;;;;;;12.68;4.55;;;;;;;;;;5035050;28;20045;-54
2021/03/11 12:52:36;;;;;;;18.08;4.03;;;;;;;;;;5034718;28;20679;-55
2021/03/11 12:55:02;;;;;;;10.57;4.07;;;;;;;;;;5035017;28;20088;-55
2021/03/11 12:57:28;;;;;;;8.63;4.10;;;;;;;;;;5034153;28;20124;-54
2021/03/11 12:59:54;;;;;;;10.13;4.03;;;;;;;;;;5034210;28;20136;-55
2021/03/11 13:02:20;;;;;;;11.70;4.25;;;;;;;;;;5032492;28;20533;-54
2021/03/11 13:04:47;;;;;;;12.35;4.28;;;;;;;;;;5034200;28;20045;-55
2021/03/11 13:07:13;;;;;;;13.60;4.68;;;;;;;;;;5033437;28;20041;-54
2021/03/11 13:09:39;;;;;;;9.77;4.85;;;;;;;;;;5027182;28;20037;-57
2021/03/11 13:12:05;;;;;;;11.38;4.57;;;;;;;;;;5034132;28;20029;-55
2021/03/11 13:14:31;;;;;;;10.60;4.10;;;;;;;;;;5032691;28;20063;-56
2021/03/11 13:16:57;;;;;;;13.60;4.53;;;;;;;;;;5032292;28;20056;-54
2021/03/11 13:19:24;;;;;;;12.57;4.78;;;;;;;;;;5031542;28;20079;-54
2021/03/11 13:21:51;;;;;;;9.40;4.13;;;;;;;;;;5034817;28;20055;-54
2021/03/11 13:24:17;;;;;;;15.18;4.68;;;;;;;;;;5033705;28;20040;-55
2021/03/11 13:26:43;;;;;;;17.33;5.18;;;;;;;;;;5033347;28;20034;-54
2021/03/11 13:29:12;;;;;;;18.92;4.75;;;;;;;;;;5032446;28;20041;-52
2021/03/11 13:31:38;;;;;;;14.40;5.85;;;;;;;;;;5032945;28;20517;-55
2021/03/11 13:34:04;;;;;;;17.10;4.75;;;;;;;;;;5033356;28;20044;-53
2021/03/11 13:36:35;;;;;;;17.15;5.28;;;;;;;;;;5033504;28;20045;-55
2021/03/11 13:39:01;;;;;;;13.23;5.20;;;;;;;;;;5033683;28;20044;-55
2021/03/11 13:41:27;;;;;;;11.80;5.57;;;;;;;;;;5035210;28;20533;-53
2021/03/11 13:43:53;;;;;;;26.67;5.60;;;;;;;;;;5033703;28;20129;-54
2021/03/11 13:46:19;;;;;;;13.98;6.22;;;;;;;;;;5033768;28;20394;-52
2021/03/11 13:48:45;;;;;;;14.05;5.88;;;;;;;;;;5033720;28;20073;-54
2021/03/11 13:51:12;;;;;;;19.55;6.13;;;;;;;;;;5026102;28;20068;-54
2021/03/11 13:53:38;;;;;;;20.35;5.90;;;;;;;;;;5027527;28;20040;-52
2021/03/11 13:56:04;;;;;;;13.02;5.93;;;;;;;;;;5034401;28;20508;-50
2021/03/11 13:58:30;;;;;;;15.80;6.22;;;;;;;;;;5031745;28;20037;-50
2021/03/11 14:00:56;;;;;;;22.80;6.72;;;;;;;;;;5034190;28;20072;-51
2021/03/11 14:03:22;;;;;;;21.58;6.78;;;;;;;;;;5031634;28;20045;-54
2021/03/11 14:05:48;;;;;;;19.60;6.90;;;;;;;;;;5033512;28;20044;-54
2021/03/11 14:08:14;;;;;;;16.98;6.93;;;;;;;;;;5028029;28;20041;-55
2021/03/11 14:10:40;;;;;;;21.30;8.25;;;;;;;;;;5033151;28;20147;-50
2021/03/11 14:13:06;;;;;;;32.03;8.13;;;;;;;;;;5033464;28;20490;-53
2021/03/11 14:15:33;;;;;;;25.85;8.32;;;;;;;;;;5032177;28;20069;-54
2021/03/11 14:17:59;;;;;;;19.13;7.88;;;;;;;;;;5036157;28;20551;-51
2021/03/11 14:20:25;;;;;;;24.23;7.90;;;;;;;;;;5034951;28;20049;-54
2021/03/11 14:22:51;;;;;;;18.60;7.85;;;;;;;;;;5043850;28;20492;-55
2021/03/11 14:25:17;;;;;;;16.83;7.57;;;;;;;;;;5033699;28;20049;-53
2021/03/11 14:27:43;;;;;;;23.33;9.00;;;;;;;;;;5033687;28;20029;-54
2021/03/11 14:30:09;;;;;;;23.60;8.77;;;;;;;;;;5034273;28;20046;-53
2021/03/11 14:32:36;;;;;;;25.23;8.23;;;;;;;;;;5033290;28;20029;-52
2021/03/11 14:35:06;;;;;;;20.20;8.55;;;;;;;;;;5032950;28;20040;-54
2021/03/11 14:37:32;;;;;;;18.73;7.85;;;;;;;;;;5032101;28;20562;-54
2021/03/11 14:39:58;;;;;;;21.83;8.40;;;;;;;;;;5032457;28;20134;-54
2021/03/11 14:42:24;;;;;;;26.73;8.10;;;;;;;;;;5032237;28;20045;-53